Terminal Aerodrome Forecast
Issued by NWS Wichita, KS

Home | Current Version | Previous Version | Text Only | Print | Product List | Glossary On
Versions: 1 2 3 4 5 6 7 8 9 10 11 12 13 14 15 16 17
315
FTUS43 KICT 162328
TAFICT
TAF
KICT 162328Z 1700/1724 20015G20KT P6SM SKC
     FM170100 19010KT P6SM SKC
     FM170600 20011KT P6SM SKC WS020/22035KT
     FM171200 18008KT P6SM SKC
     FM171800 19014G20KT P6SM SCT200=

USA.gov is the U.S. government's official web portal to all federal, state and local government web resources and services.